Central Oregon RPC :: CEDARVILLE A

liberation: 2020-08-22  07:00     latitude: 41.558500     longitude: -120.395100 99 birds
# LOFT PRING MILES ARRIVAL SPEED ToWin
1 TIM GRAVES AU20-CORP-4727 187.408 2020-08-22 11:00:10.208 1373.349 00:00:00
2 TIM GRAVES AU20-CORP-4720 187.408 2020-08-22 11:00:11.697 1373.207 00:00:01
3 AMERICAN LOFT AU20-CORP-5439 193.125 2020-08-22 11:10:53.594 1354.756 00:03:24
4 ROCKY TOP AU20-ARPU-28101 188.649 2020-08-22 11:05:37.984 1351.702 00:03:52
5 ROCKY TOP AU20-CORP-4424 188.649 2020-08-22 11:05:38.610 1351.645 00:03:53
6 ROCKY TOP AU20-PNW-2506 188.649 2020-08-22 11:05:42.149 1351.320 00:03:56
7 ROCKY TOP AU20-CORP-4474 188.649 2020-08-22 11:05:44.950 1351.064 00:03:59
8 ROCKY TOP AU20-CORP-4446 188.649 2020-08-22 11:05:45.052 1351.054 00:03:59
9 AMERICAN LOFT AU20-CORP-5489 193.125 2020-08-22 11:11:51.145 1349.597 00:04:21
10 HENDRICKSON FAMILY LOFT AU20-CORP-5260 193.205 2020-08-22 11:12:35.268 1346.230 00:04:59
11 ROCKY TOP AU20-TAC-2753 188.649 2020-08-22 11:06:45.079 1345.576 00:04:59
12 HENDRICKSON FAMILY LOFT IF20-EART-0017 193.205 2020-08-22 11:12:49.542 1344.963 00:05:14
13 HENDRICKSON FAMILY LOFT IF20-EART-0023 193.205 2020-08-22 11:12:50.807 1344.851 00:05:15
14 HENDRICKSON FAMILY LOFT IF20-EART-0018 193.205 2020-08-22 11:12:56.837 1344.317 00:05:21
15 ROCKY TOP AU20-CORP-4404 188.649 2020-08-22 11:07:00.304 1344.194 00:05:15
16 ROCKY TOP AU20-CORP-4476 188.649 2020-08-22 11:09:51.429 1328.850 00:08:06
17 STEELE LOFT AU20-BORD-20070 195.588 2020-08-22 11:20:39.953 1320.600 00:10:01
18 STEELE LOFT AU20-CORP-5025 195.588 2020-08-22 11:20:43.238 1320.322 00:10:04
19 STEELE LOFT IF20-EART-0055 195.588 2020-08-22 11:20:49.665 1319.780 00:10:10
20 STEELE LOFT AU20-CORP-5043 195.588 2020-08-22 11:20:51.611 1319.616 00:10:12
21 STEELE LOFT AU20-CORP-5086 195.588 2020-08-22 11:21:14.953 1317.651 00:10:36
22 STEELE LOFT IF20-EART-0054 195.588 2020-08-22 11:22:00.765 1313.811 00:11:22
23 TOPIGEONUSA AU20-CORP-4870 195.356 2020-08-22 11:22:33.528 1309.522 00:12:12
24 ROCKY TOP AU20-CORP-4461 188.649 2020-08-22 11:13:42.140 1308.710 00:11:56
25 ROCKY TOP AU20-CORP-4401 188.649 2020-08-22 11:13:42.269 1308.699 00:11:57
26 ROCKY TOP AU20-CORP-4402 188.649 2020-08-22 11:13:45.503 1308.421 00:12:00
27 RUETER FAMILY LOFT AU20-CORP-4536 223.008 2020-08-22 12:00:53.801 1304.414 00:15:06
28 RUETER FAMILY LOFT AU20-CORP-4574 223.008 2020-08-22 12:01:32.860 1301.598 00:15:45
29 TOPIGEONUSA AU20-CORP-4310 195.356 2020-08-22 11:24:52.136 1298.100 00:14:31
30 TOPIGEONUSA AU20-CORP-4880 195.356 2020-08-22 11:24:58.129 1297.611 00:14:37
31 ROCKY TOP AU20-CORP-4450 188.649 2020-08-22 11:15:59.784 1296.982 00:14:14
32 STEELE LOFT AU20-CORP-5082 195.588 2020-08-22 11:26:34.492 1291.327 00:15:55
33 HENDRICKSON FAMILY LOFT AU20-CORP-5290 193.205 2020-08-22 11:25:06.212 1282.674 00:17:30
34 HENDRICKSON FAMILY LOFT AU20-CORP-5252 193.205 2020-08-22 11:25:11.664 1282.234 00:17:36
35 AMERICAN LOFT AU20-CORP-5438 193.125 2020-08-22 11:25:07.232 1282.055 00:17:37
36 AMERICAN LOFT AU20-CORP-5443 193.125 2020-08-22 11:25:07.603 1282.025 00:17:38
37 AMERICAN LOFT AU20-CORP-5442 193.125 2020-08-22 11:25:11.324 1281.725 00:17:42
38 HENDRICKSON FAMILY LOFT AU20-CORP-5251 193.205 2020-08-22 11:25:19.517 1281.602 00:17:44
39 AMERICAN LOFT AU20-CORP-5409 193.125 2020-08-22 11:25:14.046 1281.506 00:17:44
40 HENDRICKSON FAMILY LOFT AU20-CORP-5273 193.205 2020-08-22 11:25:21.528 1281.440 00:17:46
41 STEELE LOFT AU20-CORP-5080 195.588 2020-08-22 11:29:04.955 1279.292 00:18:26
42 HENDRICKSON FAMILY LOFT AU20-CORP-5259 193.205 2020-08-22 11:26:04.915 1277.957 00:18:29
43 AMERICAN LOFT AU20-CORP-5456 193.125 2020-08-22 11:26:58.564 1273.145 00:19:29
44 HENDRICKSON FAMILY LOFT AU20-CORP-5263 193.205 2020-08-22 11:27:09.057 1272.843 00:19:33
45 AMERICAN LOFT AU20-CORP-5485 193.125 2020-08-22 11:27:34.267 1270.313 00:20:04
46 HENDRICKSON FAMILY LOFT AU20-CORP-5291 193.205 2020-08-22 11:28:14.648 1267.656 00:20:39
47 HENDRICKSON FAMILY LOFT AU20-CORP-5286 193.205 2020-08-22 11:28:46.784 1265.130 00:21:11
48 STEELE LOFT AU20-JEDD-14783 195.588 2020-08-22 11:32:59.990 1260.936 00:22:21
49 TOPIGEONUSA AU20-CORP-4868 195.356 2020-08-22 11:39:29.659 1230.173 00:29:08
50 TOPIGEONUSA AU20-CORP-4867 195.356 2020-08-22 11:39:34.316 1229.832 00:29:13
51 AMERICAN LOFT AU20-CORP-5479 193.125 2020-08-22 11:44:27.651 1194.889 00:36:58
52 TOPIGEONUSA AU20-CORP-4898 195.356 2020-08-22 11:53:20.504 1172.102 00:42:59
53 STEELE LOFT AU20-JEDD-14776 195.588 2020-08-22 11:53:56.155 1171.124 00:43:17
54 STEELE LOFT AU20-JEDD-1090 195.588 2020-08-22 11:54:44.781 1167.903 00:44:06
55 RUETER FAMILY LOFT AU20-CORP-4525 223.008 2020-08-22 12:41:09.608 1150.468 00:55:22
56 AMERICAN LOFT AU20-CORP-5506 193.125 2020-08-22 11:55:41.865 1149.482 00:48:12
57 HENDRICKSON FAMILY LOFT AU20-ARPU-28120 193.205 2020-08-22 11:56:34.010 1146.593 00:48:58
58 TOPIGEONUSA AU20-CORP-4897 195.356 2020-08-22 12:05:37.001 1125.025 00:55:16
59 RUETER FAMILY LOFT AU20-CORP-4531 223.008 2020-08-22 12:54:33.860 1106.975 01:08:46
60 TOPIGEONUSA AU20-CORP-4869 195.356 2020-08-22 12:16:31.227 1086.269 01:06:10
61 STEELE LOFT AU20-CORP-5005 195.588 2020-08-22 12:23:12.345 1065.065 01:12:33
62 TOPIGEONUSA AU20-CORP-4372 195.356 2020-08-22 12:35:09.361 1025.870 01:24:48
63 RUETER FAMILY LOFT AU20-CORP-4583 223.008 2020-08-22 14:09:47.854 913.206 02:24:00
64 RUETER FAMILY LOFT AU20-CORP-4517 223.008 2020-08-22 14:22:30.249 886.983 02:36:43
65 TOPIGEONUSA AU20-CORP-4882 195.356 2020-08-22 13:58:34.742 821.413 02:48:13
66 RUETER FAMILY LOFT AU20-CORP-4527 223.008 2020-08-22 15:33:18.098 764.645 03:47:31
67 RUETER FAMILY LOFT AU20-CORP-4534 223.008 2020-08-22 15:33:24.483 764.487 03:47:37
68 TIM GRAVES AU20-CORP-4722 187.408 2020-08-22 14:23:08.702 744.310 03:22:59
69 STEELE LOFT AU20-CORP-5017 195.588 2020-08-22 14:57:10.984 721.390 03:46:32
70 TOPIGEONUSA AU20-CORP-4866 195.356 2020-08-22 15:24:31.985 681.474 04:14:11
71 HENDRICKSON FAMILY LOFT AU20-CORP-5282 193.205 2020-08-22 15:23:17.518 675.634 04:15:42
72 RUETER FAMILY LOFT AU20-CORP-4571 223.008 2020-08-22 17:18:08.267 634.962 05:32:21
73 RUETER FAMILY LOFT AU20-CORP-4593 223.008 2020-08-22 17:18:11.179 634.912 05:32:24
74 TOPIGEONUSA AU20-CORP-4873 195.356 2020-08-22 16:56:26.679 576.460 05:46:05
75 RUETER FAMILY LOFT AU20-CORP-4622 223.008 2020-08-22 19:10:44.737 537.114 07:24:57
76 RUETER FAMILY LOFT AU20-CORP-4537 223.008 2020-08-22 19:10:47.263 537.083 07:25:00
77 RUETER FAMILY LOFT AU20-CORP-4651 223.008 2020-08-22 19:37:21.547 518.240 07:51:34
78 TIM GRAVES AU20-CORP-4701 187.408 2020-08-22 18:31:51.533 476.741 07:31:41
79 TIM GRAVES AU20-CORP-4743 187.408 2020-08-23 08:41:29.302 339.233 12:12:08
80 TIM GRAVES AU20-CORP-4716 187.408 2020-08-23 10:10:36.373 310.750 13:41:15
81 TIM GRAVES AU20-CORP-4739 187.408 2020-08-23 10:50:58.010 299.367 14:21:37
AMERICAN LOFT AU20-CORP-5430 0 0000-00-00 00:00:00.000 0.000 00:00:00
AMERICAN LOFT AU20-CORP-5433 0 0000-00-00 00:00:00.000 0.000 00:00:00
AMERICAN LOFT AU20-CORP-5563 0 0000-00-00 00:00:00.000 0.000 00:00:00
AMERICAN LOFT AU20-CORP-5576 0 0000-00-00 00:00:00.000 0.000 00:00:00
HENDRICKSON FAMILY LOFT AU20-ARPU-28121 0 0000-00-00 00:00:00.000 0.000 00:00:00
ROCKY TOP AU20-ARPU-28105 0 0000-00-00 00:00:00.000 0.000 00:00:00
ROCKY TOP AU20-ARPU-28131 0 0000-00-00 00:00:00.000 0.000 00:00:00
ROCKY TOP AU20-CORP-4415 0 0000-00-00 00:00:00.000 0.000 00:00:00
RUETER FAMILY LOFT AU20-CORP-4588 0 0000-00-00 00:00:00.000 0.000 00:00:00
RUETER FAMILY LOFT AU20-CORP-4652 0 0000-00-00 00:00:00.000 0.000 00:00:00
STEELE LOFT AU20-BORD-20069 0 0000-00-00 00:00:00.000 0.000 00:00:00
STEELE LOFT AU20-CORP-5026 0 0000-00-00 00:00:00.000 0.000 00:00:00
TIM GRAVES AU20-CORP-4705 0 0000-00-00 00:00:00.000 0.000 00:00:00
TIM GRAVES AU20-CORP-4729 0 0000-00-00 00:00:00.000 0.000 00:00:00
TIM GRAVES AU20-CORP-4730 0 0000-00-00 00:00:00.000 0.000 00:00:00
TOPIGEONUSA AU20-CORP-4375 0 0000-00-00 00:00:00.000 0.000 00:00:00
TOPIGEONUSA AU20-CORP-4376 0 0000-00-00 00:00:00.000 0.000 00:00:00
TOPIGEONUSA AU20-CORP-4857 0 0000-00-00 00:00:00.000 0.000 00:00:00